createdAt,value
2018-05-27T00:02:28.949Z,65.57
2018-05-27T00:04:57.607Z,66.70
2018-05-27T00:07:25.854Z,67.27
2018-05-27T00:09:55.110Z,67.77
2018-05-27T00:12:23.806Z,68.47
2018-05-27T00:14:53.127Z,70.23
2018-05-27T00:17:23.768Z,66.10
2018-05-27T00:19:52.082Z,68.47
2018-05-27T00:22:20.332Z,67.23
2018-05-27T00:24:48.599Z,72.50
2018-05-27T00:27:17.043Z,68.57
2018-05-27T00:29:45.247Z,67.40
2018-05-27T00:32:15.069Z,72.47
2018-05-27T00:34:43.272Z,67.30
2018-05-27T00:37:11.508Z,71.13
2018-05-27T00:39:39.715Z,66.90
2018-05-27T00:42:09.675Z,68.90
2018-05-27T00:44:37.887Z,71.73
2018-05-27T00:47:06.338Z,69.27
2018-05-27T00:49:34.575Z,73.83
2018-05-27T00:52:02.797Z,69.67
2018-05-27T00:54:31.748Z,66.40
2018-05-27T00:57:00.857Z,67.27
2018-05-27T00:59:29.099Z,70.00
2018-05-27T01:01:59.838Z,66.90
2018-05-27T01:04:29.725Z,65.03
2018-05-27T01:06:57.937Z,67.80
2018-05-27T01:09:27.034Z,72.43
2018-05-27T01:11:55.878Z,68.43
2018-05-27T01:14:24.071Z,69.23
2018-05-27T01:16:54.124Z,66.03
2018-05-27T01:19:22.354Z,67.37
2018-05-27T01:21:50.588Z,67.33
2018-05-27T01:24:18.797Z,68.70
2018-05-27T01:26:47.041Z,64.67
2018-05-27T01:31:50.896Z,67.77
2018-05-27T01:34:19.118Z,66.20
2018-05-27T01:36:47.325Z,65.03
2018-05-27T01:39:16.448Z,68.43
2018-05-27T01:41:44.681Z,67.20
2018-05-27T01:44:12.890Z,67.37
2018-05-27T01:46:41.118Z,66.83
2018-05-27T01:49:09.312Z,65.90
2018-05-27T01:51:37.502Z,67.40
2018-05-27T01:54:05.888Z,73.90
2018-05-27T01:56:34.076Z,67.73
2018-05-27T01:59:03.184Z,65.00
2018-05-27T02:01:31.388Z,65.53
2018-05-27T02:03:59.596Z,64.23
2018-05-27T02:06:28.534Z,65.10
2018-05-27T02:08:57.545Z,66.37
2018-05-27T02:11:26.546Z,63.63
2018-05-27T02:13:57.250Z,65.17
2018-05-27T02:16:25.517Z,66.17
2018-05-27T02:18:58.315Z,64.67
2018-05-27T02:21:27.074Z,65.60
2018-05-27T02:23:55.333Z,67.33
2018-05-27T02:26:23.544Z,66.77
2018-05-27T02:28:51.853Z,66.07
2018-05-27T02:31:20.063Z,66.93
2018-05-27T02:33:48.316Z,64.73
2018-05-27T02:36:16.588Z,67.53
2018-05-27T02:38:46.367Z,67.33
2018-05-27T02:41:14.630Z,65.13
2018-05-27T02:43:42.859Z,76.67
2018-05-27T02:46:11.077Z,72.10
2018-05-27T02:48:39.273Z,72.77
2018-05-27T02:51:08.254Z,74.37
2018-05-27T02:53:36.606Z,73.07
2018-05-27T02:56:04.874Z,75.33
2018-05-27T02:58:33.082Z,67.33
2018-05-27T03:01:02.356Z,117.10
2018-05-27T03:03:30.832Z,73.03
2018-05-27T03:05:59.059Z,71.63
2018-05-27T03:08:28.925Z,70.30
2018-05-27T03:10:57.130Z,73.07
2018-05-27T03:13:25.342Z,68.53
2018-05-27T03:15:53.576Z,66.70
2018-05-27T03:18:22.838Z,72.93
2018-05-27T03:20:51.090Z,69.83
2018-05-27T03:23:20.546Z,74.17
2018-05-27T03:25:49.196Z,71.87
2018-05-27T03:28:17.437Z,69.70
2018-05-27T03:30:46.236Z,71.23
2018-05-27T03:33:14.428Z,69.17
2018-05-27T03:35:42.636Z,70.20
2018-05-27T03:38:10.870Z,69.30
2018-05-27T03:40:40.013Z,70.17
2018-05-27T03:43:08.281Z,74.17
2018-05-27T03:45:37.405Z,77.73
2018-05-27T03:48:06.613Z,73.77
2018-05-27T03:50:35.605Z,74.50
2018-05-27T03:53:04.003Z,75.20
2018-05-27T03:55:32.282Z,76.87
2018-05-27T03:58:01.333Z,79.20
2018-05-27T04:00:31.055Z,72.60
2018-05-27T04:02:59.874Z,76.57
2018-05-27T04:08:42.245Z,73.87
2018-05-27T04:11:10.516Z,73.87
2018-05-27T04:13:38.802Z,75.03
2018-05-27T04:16:07.109Z,74.10
2018-05-27T04:18:35.696Z,79.87
2018-05-27T04:21:04.855Z,81.10
2018-05-27T04:23:33.161Z,74.40
2018-05-27T04:26:01.426Z,77.53
2018-05-27T04:28:29.870Z,73.07
2018-05-27T04:31:02.179Z,75.53
2018-05-27T04:33:30.473Z,77.20
2018-05-27T04:35:58.713Z,78.20
2018-05-27T04:38:26.959Z,74.03
2018-05-27T04:40:55.509Z,74.33
2018-05-27T04:43:24.404Z,78.27
2018-05-27T04:45:52.610Z,71.30
2018-05-27T04:48:20.849Z,78.33
2018-05-27T04:50:49.946Z,77.77
2018-05-27T04:53:18.254Z,81.17
2018-05-27T04:55:46.509Z,79.03
2018-05-27T04:58:15.480Z,76.37
2018-05-27T05:00:44.058Z,77.07
2018-05-27T05:03:12.377Z,83.10
2018-05-27T05:05:40.611Z,80.23
2018-05-27T05:08:09.992Z,78.50
2018-05-27T05:10:39.556Z,80.70
2018-05-27T05:13:09.047Z,75.27
2018-05-27T05:15:38.829Z,78.17
2018-05-27T05:18:07.116Z,79.57
2018-05-27T05:20:35.409Z,78.30
2018-05-27T05:23:04.909Z,79.63
2018-05-27T05:25:35.106Z,74.00
2018-05-27T05:28:04.399Z,76.50
2018-05-27T05:30:32.729Z,80.37
2018-05-27T05:33:02.101Z,76.03
2018-05-27T05:35:31.429Z,79.40
2018-05-27T05:38:01.626Z,74.40
2018-05-27T05:40:30.878Z,76.73
2018-05-27T05:43:01.059Z,74.43
2018-05-27T05:45:29.518Z,74.77
2018-05-27T05:47:58.645Z,73.83
2018-05-27T05:50:26.929Z,75.23
2018-05-27T05:52:55.954Z,78.57
2018-05-27T05:55:24.713Z,78.60
2018-05-27T05:57:52.963Z,77.30
2018-05-27T06:00:21.445Z,78.40
2018-05-27T06:02:50.765Z,74.87
2018-05-27T06:05:19.782Z,71.43
2018-05-27T06:07:48.024Z,68.63
2018-05-27T06:10:19.422Z,68.13
2018-05-27T06:12:48.559Z,67.93
2018-05-27T06:15:16.778Z,76.03
2018-05-27T06:17:45.055Z,72.00
2018-05-27T06:20:13.278Z,67.73
2018-05-27T06:22:41.489Z,71.33
2018-05-27T06:25:09.744Z,72.47
2018-05-27T06:27:40.188Z,77.90
2018-05-27T06:30:09.185Z,72.53
2018-05-27T06:32:38.211Z,80.33
2018-05-27T06:35:06.735Z,84.67
2018-05-27T06:37:35.718Z,80.03
2018-05-27T06:40:03.956Z,75.67
2018-05-27T06:42:32.178Z,80.20
2018-05-27T06:45:00.546Z,78.97
2018-05-27T06:47:28.730Z,80.50
2018-05-27T06:49:56.985Z,75.73
2018-05-27T06:52:25.915Z,77.50
2018-05-27T06:54:54.117Z,78.90
2018-05-27T06:57:22.400Z,79.50
2018-05-27T06:59:50.677Z,78.03
2018-05-27T07:02:20.013Z,78.43
2018-05-27T07:04:49.086Z,75.50
2018-05-27T07:07:19.193Z,77.53
2018-05-27T07:09:47.434Z,82.10
2018-05-27T07:12:17.846Z,78.90
2018-05-27T07:14:46.969Z,79.00
2018-05-27T07:17:15.223Z,80.13
2018-05-27T07:19:44.570Z,78.80
2018-05-27T07:22:14.061Z,78.00
2018-05-27T07:24:49.484Z,77.53
2018-05-27T07:27:35.270Z,80.50
2018-05-27T07:30:03.868Z,75.73
2018-05-27T07:32:33.899Z,76.97
2018-05-27T07:35:04.340Z,78.47
2018-05-27T07:37:32.780Z,77.67
2018-05-27T07:40:05.282Z,75.73
2018-05-27T07:42:33.674Z,78.87
2018-05-27T07:45:06.096Z,76.50
2018-05-27T07:47:34.555Z,81.20
2018-05-27T07:50:03.289Z,77.80
2018-05-27T07:52:31.548Z,77.97
2018-05-27T07:55:00.765Z,78.00
2018-05-27T07:57:29.608Z,78.70
2018-05-27T07:59:57.877Z,75.47
2018-05-27T08:02:28.012Z,82.33
2018-05-27T08:04:56.635Z,80.93
2018-05-27T08:07:25.827Z,78.17
2018-05-27T08:09:54.198Z,79.90
2018-05-27T08:12:26.928Z,79.17
2018-05-27T08:14:56.093Z,82.87
2018-05-27T08:17:28.247Z,79.27
2018-05-27T08:19:58.901Z,80.00
2018-05-27T08:22:28.574Z,82.23
2018-05-27T08:24:56.876Z,78.53
2018-05-27T08:27:30.610Z,75.67
2018-05-27T08:29:59.097Z,74.80
2018-05-27T08:32:31.707Z,81.53
2018-05-27T08:35:00.243Z,77.03
2018-05-27T08:37:28.518Z,79.80
2018-05-27T08:39:58.857Z,81.53
2018-05-27T08:42:28.656Z,78.83
2018-05-27T08:44:57.689Z,76.50
2018-05-27T08:47:26.389Z,76.10
2018-05-27T08:49:55.570Z,78.47
2018-05-27T08:52:23.771Z,77.50
2018-05-27T08:54:57.005Z,78.90
2018-05-27T08:57:30.586Z,82.03
2018-05-27T09:00:00.330Z,75.70
2018-05-27T09:02:29.681Z,127.43
2018-05-27T09:04:58.853Z,120.43
2018-05-27T09:07:27.134Z,100.43
2018-05-27T09:09:57.255Z,95.27
2018-05-27T09:12:27.868Z,98.97
2018-05-27T09:14:59.278Z,91.07
2018-05-27T09:17:28.879Z,89.60
2018-05-27T09:20:04.535Z,91.63
2018-05-27T09:22:38.262Z,91.17
2018-05-27T09:27:51.575Z,94.67
2018-05-27T09:30:31.584Z,91.97
2018-05-27T09:33:01.578Z,86.40
2018-05-27T09:35:34.703Z,91.93
2018-05-27T09:38:05.583Z,86.60
2018-05-27T09:40:33.823Z,84.00
2018-05-27T09:43:02.988Z,82.13
2018-05-27T09:45:32.145Z,88.23
2018-05-27T09:48:06.987Z,84.90
2018-05-27T09:50:46.002Z,82.07
2018-05-27T09:53:14.370Z,85.23
2018-05-27T09:55:43.484Z,82.97
2018-05-27T09:58:11.763Z,87.63
2018-05-27T10:01:04.536Z,86.97
2018-05-27T10:03:33.975Z,88.63
2018-05-27T10:06:02.684Z,85.37
2018-05-27T10:08:30.934Z,84.53
2018-05-27T10:10:59.762Z,84.17
2018-05-27T10:13:28.831Z,81.77
2018-05-27T10:15:57.270Z,82.83
2018-05-27T10:20:59.828Z,81.93
2018-05-27T10:23:28.065Z,83.60
2018-05-27T10:25:56.341Z,84.07
2018-05-27T10:28:24.671Z,87.97
2018-05-27T10:30:52.927Z,84.67
2018-05-27T10:33:27.868Z,83.50
2018-05-27T10:35:56.915Z,81.87
2018-05-27T10:38:27.710Z,81.97
2018-05-27T10:40:58.496Z,86.73
2018-05-27T10:43:26.979Z,86.47
2018-05-27T10:45:55.200Z,84.80
2018-05-27T10:48:26.446Z,86.37
2018-05-27T10:50:54.672Z,82.80
2018-05-27T10:53:23.182Z,88.07
2018-05-27T10:55:53.989Z,83.43
2018-05-27T10:58:22.519Z,82.67
2018-05-27T11:00:51.588Z,142.77
2018-05-27T11:03:26.975Z,86.57
2018-05-27T11:05:55.261Z,84.63
2018-05-27T11:08:23.484Z,85.83
2018-05-27T11:10:52.715Z,81.57
2018-05-27T11:13:22.181Z,84.37
2018-05-27T11:15:51.344Z,87.20
2018-05-27T11:18:19.596Z,84.87
2018-05-27T11:20:48.328Z,86.30
2018-05-27T11:23:17.398Z,85.90
2018-05-27T11:25:45.853Z,89.30
2018-05-27T11:28:14.948Z,84.47
2018-05-27T11:30:43.491Z,87.00
2018-05-27T11:33:12.695Z,87.87
2018-05-27T11:35:40.878Z,84.73
2018-05-27T11:38:09.664Z,85.63
2018-05-27T11:40:38.803Z,85.50
2018-05-27T11:43:07.150Z,83.77
2018-05-27T11:45:35.358Z,84.00
2018-05-27T11:48:04.828Z,87.53
2018-05-27T11:50:33.209Z,84.00
2018-05-27T11:53:01.479Z,85.47
2018-05-27T11:55:30.674Z,86.40
2018-05-27T11:58:00.026Z,82.33
2018-05-27T12:00:28.440Z,90.67
2018-05-27T12:02:57.264Z,86.97
2018-05-27T12:05:26.330Z,83.13
2018-05-27T12:07:54.861Z,84.37
2018-05-27T12:10:23.101Z,87.37
2018-05-27T12:12:52.187Z,84.90
2018-05-27T12:15:20.392Z,88.33
2018-05-27T12:17:48.601Z,82.50
2018-05-27T12:20:16.804Z,87.03
2018-05-27T12:22:44.981Z,85.40
2018-05-27T12:25:13.296Z,86.63
2018-05-27T12:27:41.514Z,90.60
2018-05-27T12:30:09.721Z,82.63
2018-05-27T12:32:38.870Z,88.53
2018-05-27T12:35:07.094Z,80.67
2018-05-27T12:37:35.321Z,85.37
2018-05-27T12:40:06.251Z,82.73
2018-05-27T12:42:34.577Z,84.00
2018-05-27T12:45:02.810Z,81.50
2018-05-27T12:47:31.037Z,82.13
2018-05-27T12:49:59.270Z,84.07
2018-05-27T12:52:27.849Z,85.53
2018-05-27T12:54:57.355Z,81.93
2018-05-27T12:57:25.849Z,83.80
2018-05-27T12:59:54.356Z,81.37
2018-05-27T13:02:22.708Z,85.07
2018-05-27T13:04:50.963Z,83.87
2018-05-27T13:07:19.954Z,81.60
2018-05-27T13:09:48.795Z,84.03
2018-05-27T13:12:17.985Z,82.70
2018-05-27T13:14:46.207Z,89.20
2018-05-27T13:17:14.431Z,83.30
2018-05-27T13:19:42.998Z,82.37
2018-05-27T13:22:12.145Z,84.57
2018-05-27T13:24:41.157Z,85.77
2018-05-27T13:27:09.422Z,84.27
2018-05-27T13:29:37.651Z,82.93
2018-05-27T13:32:05.909Z,83.67
2018-05-27T13:34:34.949Z,83.33
2018-05-27T13:37:03.375Z,83.97
2018-05-27T13:39:33.260Z,81.17
2018-05-27T13:42:03.763Z,84.10
2018-05-27T13:44:33.095Z,86.70
2018-05-27T13:47:02.294Z,81.30
2018-05-27T13:49:31.073Z,80.77
2018-05-27T13:51:59.386Z,78.80
2018-05-27T13:54:27.597Z,82.60
2018-05-27T13:56:56.929Z,81.60
2018-05-27T13:59:25.182Z,82.00
2018-05-27T14:01:57.838Z,83.93
2018-05-27T14:04:26.030Z,83.60
2018-05-27T14:06:54.235Z,79.33
2018-05-27T14:09:22.605Z,83.33
2018-05-27T14:11:51.329Z,78.60
2018-05-27T14:14:20.165Z,79.40
2018-05-27T14:16:49.068Z,80.63
2018-05-27T14:19:17.249Z,82.70
2018-05-27T14:21:45.469Z,79.10
2018-05-27T14:24:13.779Z,82.13
2018-05-27T14:26:43.000Z,79.00
2018-05-27T14:29:12.256Z,79.47
2018-05-27T14:31:41.481Z,81.63
2018-05-27T14:34:10.027Z,81.53
2018-05-27T14:36:39.184Z,79.63
2018-05-27T14:39:07.454Z,81.37
2018-05-27T14:41:35.735Z,80.20
2018-05-27T14:44:05.111Z,80.37
2018-05-27T14:49:11.172Z,84.43
2018-05-27T14:51:40.292Z,81.10
2018-05-27T14:54:09.687Z,111.97
2018-05-27T14:56:39.573Z,189.73
2018-05-27T14:59:07.983Z,106.80
2018-05-27T15:01:36.306Z,94.10
2018-05-27T15:04:05.620Z,93.20
2018-05-27T15:06:34.070Z,87.43
2018-05-27T15:09:03.373Z,88.77
2018-05-27T15:11:31.614Z,85.93
2018-05-27T15:13:59.821Z,87.23
2018-05-27T15:16:28.053Z,85.67
2018-05-27T15:18:57.042Z,84.23
2018-05-27T15:21:26.191Z,86.10
2018-05-27T15:23:54.421Z,85.10
2018-05-27T15:26:23.390Z,86.03
2018-05-27T15:28:52.729Z,83.43
2018-05-27T15:31:20.957Z,83.30
2018-05-27T15:33:49.509Z,84.23
2018-05-27T15:36:19.049Z,81.30
2018-05-27T15:38:47.243Z,83.93
2018-05-27T15:41:16.297Z,80.47
2018-05-27T15:43:44.542Z,81.77
2018-05-27T15:46:12.747Z,86.60
2018-05-27T15:48:40.984Z,82.30
2018-05-27T15:51:10.001Z,83.07
2018-05-27T15:53:38.789Z,80.60
2018-05-27T15:56:07.551Z,78.83
2018-05-27T15:58:36.129Z,82.90
2018-05-27T16:01:04.400Z,81.10
2018-05-27T16:03:34.420Z,87.20
2018-05-27T16:06:02.634Z,81.03
2018-05-27T16:08:30.848Z,86.23
2018-05-27T16:10:59.050Z,83.07
2018-05-27T16:13:27.276Z,78.97
2018-05-27T16:15:55.481Z,85.10
2018-05-27T16:18:23.691Z,80.47
2018-05-27T16:20:51.918Z,82.33
2018-05-27T16:23:20.399Z,82.10
2018-05-27T16:25:49.238Z,83.67
2018-05-27T16:28:17.463Z,81.33
2018-05-27T16:30:45.720Z,81.17
2018-05-27T16:33:13.931Z,84.80
2018-05-27T16:35:42.142Z,82.23
2018-05-27T16:38:10.342Z,80.37
2018-05-27T16:40:39.085Z,85.10
2018-05-27T16:43:07.330Z,79.27
2018-05-27T16:45:35.564Z,78.20
2018-05-27T16:48:03.812Z,79.97
2018-05-27T16:50:32.023Z,80.03
2018-05-27T16:53:00.618Z,81.93
2018-05-27T16:55:29.434Z,81.00
2018-05-27T16:57:57.700Z,77.87
2018-05-27T17:00:26.674Z,82.90
2018-05-27T17:02:56.322Z,79.17
2018-05-27T17:05:25.502Z,82.03
2018-05-27T17:07:54.133Z,79.17
2018-05-27T17:10:25.109Z,79.20
2018-05-27T17:12:54.242Z,74.40
2018-05-27T17:15:22.470Z,76.50
2018-05-27T17:17:53.228Z,78.97
2018-05-27T17:20:21.690Z,76.83
2018-05-27T17:22:50.266Z,80.43
2018-05-27T17:25:18.526Z,79.10
2018-05-27T17:27:47.711Z,77.03
2018-05-27T17:30:15.900Z,73.90
2018-05-27T17:32:44.105Z,74.40
2018-05-27T17:35:12.338Z,79.33
2018-05-27T17:37:40.534Z,75.00
2018-05-27T17:40:08.909Z,75.60
2018-05-27T17:42:38.219Z,77.40
2018-05-27T17:45:07.139Z,78.93
2018-05-27T17:47:36.104Z,79.73
2018-05-27T17:50:04.346Z,79.27
2018-05-27T17:52:32.614Z,74.57
2018-05-27T17:55:00.892Z,72.80
2018-05-27T17:57:29.105Z,73.93
2018-05-27T17:59:57.355Z,70.93
2018-05-27T18:02:25.625Z,74.60
2018-05-27T18:04:55.001Z,74.83
2018-05-27T18:07:23.231Z,75.83
2018-05-27T18:09:52.194Z,71.97
2018-05-27T18:12:20.595Z,71.37
2018-05-27T18:14:48.829Z,71.70
2018-05-27T18:17:17.056Z,75.43
2018-05-27T18:19:45.283Z,74.17
2018-05-27T18:22:13.533Z,74.80
2018-05-27T18:24:41.848Z,76.93
2018-05-27T18:27:10.048Z,74.90
2018-05-27T18:29:38.301Z,78.57
2018-05-27T18:32:06.629Z,76.27
2018-05-27T18:34:34.829Z,73.73
2018-05-27T18:37:03.058Z,75.03
2018-05-27T18:39:31.362Z,75.70
2018-05-27T18:42:00.381Z,74.97
2018-05-27T18:44:29.600Z,72.53
2018-05-27T18:46:57.845Z,71.97
2018-05-27T18:49:26.879Z,69.17
2018-05-27T18:51:55.146Z,73.77
2018-05-27T18:54:23.366Z,76.07
2018-05-27T18:56:51.561Z,73.13
2018-05-27T18:59:19.778Z,74.53
2018-05-27T19:01:48.705Z,76.63
2018-05-27T19:04:16.959Z,72.83
2018-05-27T19:06:45.198Z,73.20
2018-05-27T19:09:13.419Z,71.37
2018-05-27T19:11:41.609Z,75.43
2018-05-27T19:14:09.831Z,70.53
2018-05-27T19:16:38.086Z,75.33
2018-05-27T19:19:06.978Z,74.07
2018-05-27T19:21:35.515Z,72.50
2018-05-27T19:24:03.732Z,74.37
2018-05-27T19:26:32.107Z,74.23
2018-05-27T19:29:00.329Z,78.73
2018-05-27T19:31:28.621Z,72.73
2018-05-27T19:33:57.578Z,71.53
2018-05-27T19:36:25.788Z,74.43
2018-05-27T19:38:54.007Z,73.23
2018-05-27T19:41:22.208Z,72.50
2018-05-27T19:43:50.397Z,73.20
2018-05-27T19:46:19.412Z,69.17
2018-05-27T19:48:47.641Z,72.60
2018-05-27T19:51:15.903Z,74.03
2018-05-27T19:53:44.148Z,74.23
2018-05-27T19:56:13.155Z,74.20
2018-05-27T19:58:41.355Z,74.13
2018-05-27T20:01:09.630Z,77.70
2018-05-27T20:03:37.860Z,72.00
2018-05-27T20:06:06.069Z,72.77
2018-05-27T20:08:34.354Z,72.80
2018-05-27T20:11:02.588Z,72.80
2018-05-27T20:13:31.490Z,74.37
2018-05-27T20:15:59.748Z,72.37
2018-05-27T20:18:27.956Z,74.23
2018-05-27T20:20:56.161Z,75.60
2018-05-27T20:23:24.385Z,75.17
2018-05-27T20:25:52.587Z,73.23
2018-05-27T20:28:20.844Z,71.93
2018-05-27T20:30:49.154Z,79.07
2018-05-27T20:33:18.902Z,74.77
2018-05-27T20:35:47.105Z,74.87
2018-05-27T20:38:15.334Z,70.43
2018-05-27T20:40:43.537Z,78.27
2018-05-27T20:43:11.796Z,72.33
2018-05-27T20:45:40.052Z,73.50
2018-05-27T20:48:09.084Z,78.63
2018-05-27T20:50:37.342Z,74.20
2018-05-27T20:53:05.571Z,76.00
2018-05-27T20:55:34.700Z,74.47
2018-05-27T20:58:03.116Z,74.03
2018-05-27T21:00:31.373Z,79.83
2018-05-27T21:03:00.498Z,75.57
2018-05-27T21:05:28.743Z,72.57
2018-05-27T21:07:57.017Z,72.13
2018-05-27T21:10:25.214Z,71.40
2018-05-27T21:12:53.501Z,78.00
2018-05-27T21:15:22.552Z,72.37
2018-05-27T21:17:50.796Z,74.93
2018-05-27T21:20:19.098Z,77.13
2018-05-27T21:22:47.352Z,75.20
2018-05-27T21:25:15.576Z,71.77
2018-05-27T21:27:43.844Z,76.03
2018-05-27T21:30:12.078Z,77.70
2018-05-27T21:32:41.033Z,79.93
2018-05-27T21:35:09.268Z,75.97
2018-05-27T21:37:37.671Z,75.33
2018-05-27T21:40:05.896Z,71.57
2018-05-27T21:42:35.535Z,71.40
2018-05-27T21:45:03.975Z,77.93
2018-05-27T21:47:32.205Z,74.57
2018-05-27T21:50:01.149Z,75.57
2018-05-27T21:52:30.217Z,74.33
2018-05-27T21:54:58.449Z,78.00
2018-05-27T21:57:26.706Z,73.20
2018-05-27T21:59:55.199Z,72.67
2018-05-27T22:02:23.681Z,72.13
2018-05-27T22:04:53.700Z,74.17
2018-05-27T22:07:22.147Z,73.17
2018-05-27T22:09:50.358Z,71.03
2018-05-27T22:12:18.566Z,72.83
2018-05-27T22:14:46.818Z,71.07
2018-05-27T22:17:15.832Z,78.33
2018-05-27T22:19:44.903Z,73.20
2018-05-27T22:22:14.154Z,71.27
2018-05-27T22:24:43.248Z,72.07
2018-05-27T22:27:11.538Z,71.10
2018-05-27T22:29:39.780Z,71.60
2018-05-27T22:32:08.533Z,75.03
2018-05-27T22:34:37.769Z,77.30
2018-05-27T22:37:07.262Z,71.17
2018-05-27T22:39:35.505Z,74.90
2018-05-27T22:42:03.750Z,72.50
2018-05-27T22:44:32.461Z,75.67
2018-05-27T22:47:00.688Z,73.47
2018-05-27T22:49:29.956Z,75.47
2018-05-27T22:51:58.193Z,74.17
2018-05-27T22:54:26.437Z,72.17
2018-05-27T22:56:54.671Z,72.47
2018-05-27T22:59:23.746Z,76.00
2018-05-27T23:01:52.385Z,76.80
2018-05-27T23:04:20.616Z,75.67
2018-05-27T23:06:50.129Z,72.97
2018-05-27T23:09:18.334Z,73.83
2018-05-27T23:11:47.117Z,73.43
2018-05-27T23:14:15.899Z,76.70
2018-05-27T23:16:44.197Z,76.07
2018-05-27T23:19:12.426Z,72.43
2018-05-27T23:21:41.394Z,72.00
2018-05-27T23:24:09.640Z,72.53
2018-05-27T23:26:37.857Z,72.27
2018-05-27T23:29:06.232Z,70.07
2018-05-27T23:31:34.419Z,73.20
2018-05-27T23:34:03.032Z,71.27
2018-05-27T23:36:31.947Z,74.10
2018-05-27T23:39:01.504Z,72.60
2018-05-27T23:41:29.754Z,72.77
2018-05-27T23:43:57.985Z,71.60
2018-05-27T23:46:26.180Z,74.53
2018-05-27T23:48:54.454Z,76.33
2018-05-27T23:51:22.634Z,71.07
2018-05-27T23:53:51.995Z,71.90
2018-05-27T23:56:20.248Z,69.93
2018-05-27T23:58:48.490Z,75.53
